createdAt,value
2017-05-22T00:00:02.642Z,17.69
2017-05-22T00:01:12.896Z,17.63
2017-05-22T00:02:23.248Z,17.63
2017-05-22T00:03:33.602Z,17.49
2017-05-22T00:04:44.012Z,17.55
2017-05-22T00:05:54.350Z,17.54
2017-05-22T00:07:04.400Z,17.49
2017-05-22T00:08:14.803Z,17.55
2017-05-22T00:09:25.164Z,17.54
2017-05-22T00:10:35.523Z,17.5
2017-05-22T00:11:45.882Z,17.57
2017-05-22T00:12:56.244Z,17.46
2017-05-22T00:14:06.592Z,17.45
2017-05-22T00:15:16.333Z,17.49
2017-05-22T00:16:26.701Z,17.5
2017-05-22T00:17:37.057Z,17.4
2017-05-22T00:18:47.435Z,17.43
2017-05-22T00:19:57.826Z,17.47
2017-05-22T00:21:08.197Z,17.39
2017-05-22T00:22:18.568Z,17.4
2017-05-22T00:23:28.957Z,17.32
2017-05-22T00:24:39.327Z,17.31
2017-05-22T00:25:49.463Z,17.38
2017-05-22T00:26:59.497Z,17.28
2017-05-22T00:28:09.886Z,17.35
2017-05-22T00:29:20.242Z,17.35
2017-05-22T00:30:30.343Z,17.32
2017-05-22T00:31:40.746Z,17.32
2017-05-22T00:32:51.102Z,17.35
2017-05-22T00:34:01.469Z,17.31
2017-05-22T00:35:11.504Z,17.35
2017-05-22T00:36:21.859Z,17.3
2017-05-22T00:37:32.200Z,17.24
2017-05-22T00:38:42.551Z,17.27
2017-05-22T00:39:52.660Z,17.2
2017-05-22T00:41:02.389Z,17.32
2017-05-22T00:42:12.759Z,17.17
2017-05-22T00:43:23.163Z,17.21
2017-05-22T00:44:33.199Z,17.24
2017-05-22T00:45:43.557Z,17.21
2017-05-22T00:46:53.906Z,17.3
2017-05-22T00:48:04.257Z,17.32
2017-05-22T00:49:14.620Z,17.2
2017-05-22T00:50:24.962Z,17.28
2017-05-22T00:51:35.344Z,17.25
2017-05-22T00:52:45.449Z,17.35
2017-05-22T00:53:55.491Z,17.2
2017-05-22T00:55:05.830Z,17.31
2017-05-22T00:56:16.181Z,17.25
2017-05-22T00:57:26.552Z,17.21
2017-05-22T00:58:36.914Z,17.21
2017-05-22T00:59:46.331Z,17.24
2017-05-22T01:00:56.687Z,17.27
2017-05-22T01:02:07.051Z,17.18
2017-05-22T01:03:17.108Z,17.1
2017-05-22T01:04:27.157Z,17.09
2017-05-22T01:05:37.525Z,17.12
2017-05-22T01:06:47.868Z,17.17
2017-05-22T01:07:58.244Z,17.12
2017-05-22T01:09:07.669Z,17.12
2017-05-22T01:10:18.016Z,17.09
2017-05-22T01:11:28.381Z,17.1
2017-05-22T01:12:38.751Z,17.02
2017-05-22T01:13:49.110Z,17
2017-05-22T01:14:59.155Z,17.02
2017-05-22T01:16:09.191Z,17
2017-05-22T01:17:19.229Z,17.02
2017-05-22T01:18:29.260Z,16.97
2017-05-22T01:19:39.304Z,16.99
2017-05-22T01:20:49.656Z,16.97
2017-05-22T01:21:59.702Z,16.95
2017-05-22T01:23:09.784Z,16.92
2017-05-22T01:24:20.179Z,17
2017-05-22T01:25:30.231Z,16.97
2017-05-22T01:26:40.257Z,16.88
2017-05-22T01:27:50.603Z,16.88
2017-05-22T01:29:00.635Z,16.88
2017-05-22T01:30:11.009Z,16.77
2017-05-22T01:31:21.048Z,16.94
2017-05-22T01:32:31.094Z,16.82
2017-05-22T01:33:41.467Z,16.9
2017-05-22T01:34:51.804Z,16.88
2017-05-22T01:36:01.850Z,16.88
2017-05-22T01:37:12.406Z,16.82
2017-05-22T01:38:22.439Z,16.9
2017-05-22T01:39:32.468Z,16.81
2017-05-22T01:40:42.825Z,16.84
2017-05-22T01:41:53.151Z,16.82
2017-05-22T01:43:03.501Z,16.77
2017-05-22T01:44:13.869Z,16.77
2017-05-22T01:45:23.598Z,16.76
2017-05-22T01:46:33.942Z,16.73
2017-05-22T01:47:44.281Z,16.74
2017-05-22T01:48:54.311Z,16.72
2017-05-22T01:50:04.346Z,16.72
2017-05-22T01:51:14.669Z,16.69
2017-05-22T01:52:25.025Z,16.65
2017-05-22T01:53:35.068Z,16.73
2017-05-22T01:54:45.426Z,16.72
2017-05-22T01:55:55.795Z,16.72
2017-05-22T01:57:06.140Z,16.77
2017-05-22T01:58:16.500Z,16.77
2017-05-22T01:59:26.837Z,16.72
2017-05-22T02:00:36.882Z,16.76
2017-05-22T02:01:46.920Z,16.7
2017-05-22T02:02:56.957Z,16.69
2017-05-22T02:04:07.300Z,16.72
2017-05-22T02:05:17.714Z,16.69
2017-05-22T02:06:28.066Z,16.74
2017-05-22T02:07:37.769Z,16.69
2017-05-22T02:08:48.109Z,16.65
2017-05-22T02:09:58.467Z,16.7
2017-05-22T02:11:08.876Z,16.67
2017-05-22T02:12:19.289Z,16.73
2017-05-22T02:13:29.322Z,16.69
2017-05-22T02:14:39.354Z,16.67
2017-05-22T02:15:49.692Z,16.76
2017-05-22T02:17:00.031Z,16.7
2017-05-22T02:18:10.379Z,16.66
2017-05-22T02:19:20.746Z,16.57
2017-05-22T02:20:31.106Z,16.52
2017-05-22T02:21:41.470Z,16.58
2017-05-22T02:22:51.883Z,16.58
2017-05-22T02:24:02.241Z,16.54
2017-05-22T02:25:12.285Z,16.59
2017-05-22T02:26:22.653Z,16.58
2017-05-22T02:27:33.005Z,16.58
2017-05-22T02:28:43.055Z,16.45
2017-05-22T02:29:53.401Z,16.47
2017-05-22T02:31:03.780Z,16.45
2017-05-22T02:32:14.140Z,16.47
2017-05-22T02:33:24.478Z,16.44
2017-05-22T02:34:34.850Z,16.44
2017-05-22T02:35:45.200Z,16.45
2017-05-22T02:36:55.527Z,16.42
2017-05-22T02:38:05.259Z,16.44
2017-05-22T02:39:15.598Z,16.36
2017-05-22T02:40:25.984Z,16.42
2017-05-22T02:41:36.325Z,16.34
2017-05-22T02:42:46.672Z,16.44
2017-05-22T02:43:56.720Z,16.33
2017-05-22T02:45:06.761Z,16.36
2017-05-22T02:46:16.792Z,16.33
2017-05-22T02:47:26.824Z,16.45
2017-05-22T02:48:36.538Z,16.42
2017-05-22T02:49:46.882Z,16.34
2017-05-22T02:50:56.901Z,16.36
2017-05-22T02:52:07.259Z,16.36
2017-05-22T02:53:16.977Z,16.4
2017-05-22T02:54:26.714Z,16.4
2017-05-22T02:55:36.766Z,16.37
2017-05-22T02:56:47.102Z,16.39
2017-05-22T02:57:57.463Z,16.45
2017-05-22T02:59:07.502Z,16.39
2017-05-22T03:00:17.853Z,16.36
2017-05-22T03:01:28.197Z,16.36
2017-05-22T03:33:00.079Z,13.84
2017-05-22T03:34:10.405Z,13.84
2017-05-22T03:35:20.737Z,13.94
2017-05-22T03:36:31.087Z,13.91
2017-05-22T03:37:41.123Z,14.09
2017-05-22T03:38:51.148Z,14.19
2017-05-22T03:40:01.505Z,14.34
2017-05-22T03:41:11.525Z,14.46
2017-05-22T03:42:21.877Z,14.61
2017-05-22T03:43:31.935Z,14.69
2017-05-22T03:44:42.292Z,14.87
2017-05-22T03:45:52.656Z,15.04
2017-05-22T03:47:03.006Z,15.19
2017-05-22T03:48:13.341Z,15.43
2017-05-22T03:49:23.709Z,15.43
2017-05-22T03:50:34.055Z,15.65
2017-05-22T03:51:44.392Z,15.77
2017-05-22T03:52:54.117Z,15.89
2017-05-22T03:54:04.445Z,16
2017-05-22T03:55:14.804Z,16.14
2017-05-22T03:56:24.533Z,16.27
2017-05-22T03:57:34.574Z,16.4
2017-05-22T03:58:44.922Z,16.39
2017-05-22T03:59:54.635Z,16.47
2017-05-22T04:01:05.036Z,16.59
2017-05-22T04:02:15.068Z,16.57
2017-05-22T04:03:25.415Z,16.72
2017-05-22T04:04:35.460Z,16.74
2017-05-22T04:05:45.512Z,16.87
2017-05-22T04:06:55.549Z,16.88
2017-05-22T04:08:05.586Z,16.94
2017-05-22T04:09:15.619Z,17
2017-05-22T04:10:25.652Z,17.09
2017-05-22T04:11:36.000Z,17.12
2017-05-22T04:12:46.346Z,17.2
2017-05-22T04:13:55.768Z,17.22
2017-05-22T04:15:06.122Z,17.28
2017-05-22T04:16:16.697Z,17.32
2017-05-22T04:17:26.730Z,17.46
2017-05-22T04:18:36.823Z,17.63
2017-05-22T04:19:47.179Z,18.38
2017-05-22T04:20:57.520Z,19.55
2017-05-22T04:22:07.869Z,20.46
2017-05-22T04:23:18.223Z,21.19
2017-05-22T04:24:28.568Z,21.97
2017-05-22T04:25:38.967Z,22.64
2017-05-22T04:26:49.007Z,23.16
2017-05-22T04:27:59.368Z,23.67
2017-05-22T04:29:09.431Z,24.03
2017-05-22T04:30:19.771Z,24.71
2017-05-22T04:31:30.118Z,25.11
2017-05-22T04:32:40.180Z,25.47
2017-05-22T04:33:50.587Z,25.6
2017-05-22T04:35:00.940Z,25.57
2017-05-22T04:36:11.288Z,25.64
2017-05-22T04:37:21.639Z,25.81
2017-05-22T04:38:31.690Z,25.91
2017-05-22T04:39:42.038Z,25.84
2017-05-22T04:40:52.400Z,26.31
2017-05-22T04:42:02.745Z,26.67
2017-05-22T04:43:13.118Z,27.05
2017-05-22T04:44:23.466Z,27.42
2017-05-22T04:45:33.503Z,27.71
2017-05-22T04:46:43.853Z,27.89
2017-05-22T04:47:54.202Z,28.08
2017-05-22T04:49:04.557Z,28.28
2017-05-22T04:50:14.592Z,28.43
2017-05-22T04:51:24.994Z,28.68
2017-05-22T04:52:35.332Z,28.88
2017-05-22T04:53:45.058Z,29.03
2017-05-22T04:54:55.087Z,29.14
2017-05-22T04:56:05.438Z,29.33
2017-05-22T04:57:15.834Z,29.43
2017-05-22T04:58:25.882Z,29.39
2017-05-22T04:59:36.241Z,29.48
2017-05-22T05:00:46.604Z,29.43
2017-05-22T05:01:56.962Z,29.42
2017-05-22T05:03:07.310Z,29.51
2017-05-22T05:04:17.665Z,29.48
2017-05-22T05:05:28.011Z,29.55
2017-05-22T05:06:37.735Z,29.66
2017-05-22T05:07:48.080Z,29.67
2017-05-22T05:08:58.427Z,29.69
2017-05-22T05:10:08.474Z,29.66
2017-05-22T05:11:18.823Z,29.6
2017-05-22T05:12:29.185Z,29.63
2017-05-22T05:13:39.227Z,29.66
2017-05-22T05:14:49.581Z,29.65
2017-05-22T05:15:59.318Z,29.66
2017-05-22T05:17:09.681Z,29.69
2017-05-22T05:18:20.047Z,29.57
2017-05-22T05:19:30.467Z,29.47
2017-05-22T05:20:40.197Z,29.36
2017-05-22T05:21:50.568Z,29.43
2017-05-22T05:23:00.603Z,29.43
2017-05-22T05:24:10.946Z,29.42
2017-05-22T05:25:21.293Z,29.39
2017-05-22T05:26:31.704Z,29.4
2017-05-22T05:27:42.057Z,29.33
2017-05-22T05:28:52.425Z,29.36
2017-05-22T05:30:02.788Z,29.36
2017-05-22T05:31:13.347Z,29.32
2017-05-22T05:32:23.125Z,29.29
2017-05-22T05:33:33.484Z,29.39
2017-05-22T05:34:43.844Z,29.51
2017-05-22T05:35:54.192Z,29.43
2017-05-22T05:37:04.541Z,29.4
2017-05-22T05:38:14.893Z,29.21
2017-05-22T05:39:24.922Z,29.14
2017-05-22T05:40:35.340Z,29.11
2017-05-22T05:41:45.698Z,29.01
2017-05-22T05:42:56.048Z,29.02
2017-05-22T05:44:06.406Z,28.97
2017-05-22T05:45:16.135Z,28.95
2017-05-22T05:46:26.480Z,28.8
2017-05-22T05:47:36.836Z,28.86
2017-05-22T05:48:46.879Z,28.68
2017-05-22T05:49:57.299Z,28.6
2017-05-22T05:51:07.351Z,28.57
2017-05-22T05:52:17.726Z,28.3
2017-05-22T05:53:28.079Z,28.33
2017-05-22T05:54:37.823Z,28.31
2017-05-22T05:55:48.169Z,28.31
2017-05-22T05:56:58.532Z,28.33
2017-05-22T05:58:08.258Z,28.27
2017-05-22T05:59:18.607Z,28.24
2017-05-22T06:00:28.960Z,28.12
2017-05-22T06:01:39.362Z,28.03
2017-05-22T06:02:49.409Z,27.91
2017-05-22T06:03:59.816Z,27.94
2017-05-22T06:05:10.176Z,27.98
2017-05-22T06:06:20.542Z,27.84
2017-05-22T06:07:30.266Z,27.61
2017-05-22T06:08:40.311Z,27.45
2017-05-22T06:09:50.687Z,26.79
2017-05-22T06:11:01.112Z,26.01
2017-05-22T06:12:11.468Z,25.34
2017-05-22T06:13:21.877Z,25.04
2017-05-22T06:14:32.237Z,24.71
2017-05-22T06:15:42.607Z,24.42
2017-05-22T06:16:52.962Z,24.37
2017-05-22T06:18:03.319Z,24.18
2017-05-22T06:19:13.827Z,24
2017-05-22T06:20:24.171Z,23.89
2017-05-22T06:21:34.508Z,23.82
2017-05-22T06:22:44.564Z,23.75
2017-05-22T06:23:54.912Z,23.94
2017-05-22T06:25:05.318Z,24.26
2017-05-22T06:26:15.675Z,24.54
2017-05-22T06:27:26.023Z,24.69
2017-05-22T06:28:36.408Z,24.78
2017-05-22T06:29:46.150Z,24.92
2017-05-22T06:30:56.199Z,24.83
2017-05-22T06:32:06.628Z,24.82
2017-05-22T06:33:16.733Z,24.77
2017-05-22T06:34:27.095Z,24.7
2017-05-22T06:35:37.497Z,24.71
2017-05-22T06:36:47.865Z,24.67
2017-05-22T06:37:58.207Z,24.58
2017-05-22T06:39:08.558Z,24.42
2017-05-22T06:40:18.895Z,24.36
2017-05-22T06:41:29.261Z,24.27
2017-05-22T06:42:39.611Z,24.18
2017-05-22T06:43:49.657Z,24.07
2017-05-22T06:45:00.001Z,24.09
2017-05-22T06:46:09.729Z,23.94
2017-05-22T06:47:19.771Z,23.94
2017-05-22T06:48:29.852Z,23.82
2017-05-22T06:49:40.224Z,23.9
2017-05-22T06:50:50.583Z,23.81
2017-05-22T06:52:00.620Z,23.75
2017-05-22T06:53:10.645Z,23.67
2017-05-22T06:54:20.693Z,23.63
2017-05-22T06:55:31.038Z,23.62
2017-05-22T06:56:41.074Z,23.55
2017-05-22T06:57:51.434Z,23.48
2017-05-22T06:59:01.803Z,23.56
2017-05-22T07:00:11.577Z,23.53
2017-05-22T07:01:21.935Z,23.47
2017-05-22T07:02:32.319Z,23.29
2017-05-22T07:03:42.662Z,23.21
2017-05-22T07:04:53.017Z,23.25
2017-05-22T07:06:03.379Z,23.24
2017-05-22T07:07:13.741Z,23.18
2017-05-22T07:08:23.768Z,23.14
2017-05-22T07:09:34.120Z,23.18
2017-05-22T07:10:44.165Z,23.15
2017-05-22T07:11:54.584Z,23.21
2017-05-22T07:13:04.954Z,23.25
2017-05-22T07:14:15.309Z,23.22
2017-05-22T07:15:25.349Z,23.22
2017-05-22T07:16:35.761Z,23.26
2017-05-22T07:17:46.116Z,23.21
2017-05-22T07:18:56.468Z,23.25
2017-05-22T07:20:06.816Z,23.26
2017-05-22T07:21:16.846Z,23.28
2017-05-22T07:22:27.201Z,23.25
2017-05-22T07:23:37.608Z,23.25
2017-05-22T07:24:47.656Z,23.24
2017-05-22T07:25:58.023Z,23.22
2017-05-22T07:27:08.376Z,23.12
2017-05-22T07:28:18.431Z,23.07
2017-05-22T07:29:28.839Z,23.12
2017-05-22T07:30:39.198Z,23.1
2017-05-22T07:31:49.000Z,23.24
2017-05-22T07:32:59.349Z,23.32
2017-05-22T07:34:09.740Z,23.26
2017-05-22T07:35:19.830Z,23.41
2017-05-22T07:36:29.861Z,23.35
2017-05-22T07:37:40.207Z,23.45
2017-05-22T07:38:50.573Z,23.45
2017-05-22T07:40:00.626Z,23.47
2017-05-22T07:41:11.018Z,23.48
2017-05-22T07:42:21.049Z,23.52
2017-05-22T07:43:31.403Z,23.62
2017-05-22T07:44:41.463Z,23.7
2017-05-22T07:45:51.526Z,23.74
2017-05-22T07:47:01.877Z,23.82
2017-05-22T07:48:12.245Z,23.9
2017-05-22T07:49:22.592Z,24.07
2017-05-22T07:50:32.629Z,24.02
2017-05-22T07:51:42.985Z,24.11
2017-05-22T07:52:53.347Z,24.17
2017-05-22T07:54:03.707Z,24.17
2017-05-22T07:55:14.071Z,24.15
2017-05-22T07:56:24.411Z,24.19
2017-05-22T07:57:34.142Z,24.15
2017-05-22T07:58:44.229Z,24.17
2017-05-22T07:59:54.590Z,24.17
2017-05-22T08:01:04.619Z,24.18
2017-05-22T08:02:14.968Z,24.3
2017-05-22T08:03:25.346Z,24.27
2017-05-22T08:04:35.439Z,24.32
2017-05-22T08:05:45.474Z,24.27
2017-05-22T08:06:55.833Z,24.33
2017-05-22T08:08:05.564Z,24.46
2017-05-22T08:09:15.621Z,24.44
2017-05-22T08:10:25.406Z,24.55
2017-05-22T08:11:35.761Z,24.49
2017-05-22T08:12:46.116Z,24.54
2017-05-22T08:13:56.493Z,24.56
2017-05-22T08:15:06.541Z,24.64
2017-05-22T08:16:16.630Z,24.67
2017-05-22T08:17:26.989Z,24.74
2017-05-22T08:18:37.337Z,24.75
2017-05-22T08:19:47.691Z,24.7
2017-05-22T08:20:57.735Z,24.75
2017-05-22T08:22:08.102Z,24.85
2017-05-22T08:23:18.442Z,24.9
2017-05-22T08:24:28.488Z,24.96
2017-05-22T08:25:38.833Z,25.11
2017-05-22T08:26:49.172Z,25.14
2017-05-22T08:27:59.516Z,25.29
2017-05-22T08:29:09.888Z,25.38
2017-05-22T08:30:20.261Z,25.42
2017-05-22T08:31:30.300Z,25.59
2017-05-22T08:32:40.397Z,25.62
2017-05-22T08:33:50.766Z,25.62
2017-05-22T08:35:01.125Z,25.74
2017-05-22T08:36:11.491Z,25.69
2017-05-22T08:37:21.872Z,25.59
2017-05-22T08:38:32.279Z,25.59
2017-05-22T08:39:42.650Z,25.63
2017-05-22T08:40:53.019Z,25.63
2017-05-22T08:42:03.055Z,25.74
2017-05-22T08:43:13.117Z,25.63
2017-05-22T08:44:23.169Z,25.69
2017-05-22T08:45:33.527Z,25.71
2017-05-22T08:46:43.899Z,25.76
2017-05-22T08:47:54.274Z,25.85
2017-05-22T08:49:04.637Z,25.82
2017-05-22T08:50:14.884Z,25.81
2017-05-22T08:51:25.235Z,25.84
2017-05-22T08:52:35.282Z,25.93
2017-05-22T08:53:45.742Z,25.91
2017-05-22T08:54:55.489Z,25.97
2017-05-22T08:56:05.880Z,25.97
2017-05-22T08:57:15.929Z,25.94
2017-05-22T08:58:26.295Z,25.97
2017-05-22T08:59:36.026Z,26
2017-05-22T09:00:46.393Z,26.11
2017-05-22T09:01:56.495Z,26.11
2017-05-22T09:03:06.844Z,26.06
2017-05-22T09:04:17.253Z,26.12
2017-05-22T09:05:27.300Z,26.16
2017-05-22T09:06:37.658Z,26.2
2017-05-22T09:07:47.706Z,26.17
2017-05-22T09:08:57.448Z,26.09
2017-05-22T09:10:07.829Z,26.19
2017-05-22T09:11:18.185Z,26.19
2017-05-22T09:12:28.546Z,26.19
2017-05-22T09:13:38.638Z,26.17
2017-05-22T09:14:49.004Z,26.27
2017-05-22T09:15:59.075Z,26.41
2017-05-22T09:17:09.495Z,26.31
2017-05-22T09:18:19.630Z,26.44
2017-05-22T09:19:29.052Z,26.45
2017-05-22T09:20:39.111Z,26.47
2017-05-22T09:21:49.628Z,26.41
2017-05-22T09:22:59.994Z,26.41
2017-05-22T09:24:10.338Z,26.56
2017-05-22T09:25:20.727Z,26.69
2017-05-22T09:26:31.074Z,26.72
2017-05-22T09:27:41.415Z,26.78
2017-05-22T09:28:51.454Z,26.74
2017-05-22T09:30:01.809Z,26.82
2017-05-22T09:31:12.194Z,26.94
2017-05-22T09:32:22.547Z,26.99
2017-05-22T09:33:32.599Z,27.01
2017-05-22T09:34:42.946Z,27.01
2017-05-22T09:35:53.298Z,27
2017-05-22T09:37:03.682Z,26.93
2017-05-22T09:38:14.041Z,27.06
2017-05-22T09:39:24.408Z,27.08
2017-05-22T09:40:34.754Z,27.15
2017-05-22T09:41:45.116Z,27.13
2017-05-22T09:42:55.150Z,27.19
2017-05-22T09:44:05.180Z,27.15
2017-05-22T09:45:15.606Z,27.18
2017-05-22T09:46:25.340Z,27.23
2017-05-22T09:47:35.719Z,27.28
2017-05-22T09:48:46.132Z,27.33
2017-05-22T09:49:56.488Z,27.41
2017-05-22T09:51:06.835Z,27.43
2017-05-22T09:52:16.882Z,27.34
2017-05-22T09:53:27.262Z,27.46
2017-05-22T09:54:37.045Z,27.48
2017-05-22T09:55:47.628Z,27.48
2017-05-22T09:56:57.988Z,27.61
2017-05-22T09:58:08.362Z,27.61
2017-05-22T09:59:18.716Z,27.81
2017-05-22T10:00:29.085Z,27.9
2017-05-22T10:01:39.434Z,27.86
2017-05-22T10:02:49.795Z,27.9
2017-05-22T10:04:00.174Z,27.84
2017-05-22T10:05:10.550Z,27.84
2017-05-22T10:06:20.966Z,27.84
2017-05-22T10:07:31.309Z,27.84
2017-05-22T10:08:41.377Z,27.87
2017-05-22T10:09:51.741Z,27.89
2017-05-22T10:11:02.111Z,27.84
2017-05-22T10:12:12.502Z,27.98
2017-05-22T10:13:22.857Z,28.01
2017-05-22T10:14:32.912Z,28.02
2017-05-22T10:15:43.304Z,28.03
2017-05-22T10:16:53.664Z,28.09
2017-05-22T10:18:03.445Z,28.14
2017-05-22T10:19:13.492Z,28.18
2017-05-22T10:20:23.535Z,28.18
2017-05-22T10:21:33.932Z,28.23
2017-05-22T10:22:44.292Z,28.2
2017-05-22T10:23:54.701Z,28.27
2017-05-22T10:25:05.045Z,28.31
2017-05-22T10:26:15.113Z,28.45
2017-05-22T10:27:25.167Z,28.46
2017-05-22T10:28:35.227Z,28.68
2017-05-22T10:29:45.638Z,28.65
2017-05-22T10:30:56.055Z,28.68
2017-05-22T10:32:06.415Z,28.6
2017-05-22T10:33:16.459Z,28.67
2017-05-22T10:34:26.500Z,28.67
2017-05-22T10:35:36.607Z,28.72
2017-05-22T10:36:46.977Z,28.73
2017-05-22T10:37:57.336Z,28.64
2017-05-22T10:39:07.392Z,28.54
2017-05-22T10:40:17.749Z,28.7
2017-05-22T10:41:27.531Z,28.67
2017-05-22T10:42:37.879Z,28.43
2017-05-22T10:43:47.923Z,28.42
2017-05-22T10:44:58.287Z,28.49
2017-05-22T10:46:08.333Z,28.72
2017-05-22T10:47:18.750Z,28.95
2017-05-22T10:48:29.128Z,29.14
2017-05-22T10:49:39.181Z,29.36
2017-05-22T10:50:49.547Z,29.35
2017-05-22T10:51:59.901Z,29.26
2017-05-22T10:53:10.243Z,29.33
2017-05-22T10:54:20.593Z,29.35
2017-05-22T10:55:30.960Z,29.32
2017-05-22T10:56:41.310Z,29.35
2017-05-22T10:57:51.665Z,29.4
2017-05-22T10:59:02.028Z,29.45
2017-05-22T11:00:12.068Z,29.48
2017-05-22T11:01:22.430Z,29.39
2017-05-22T11:02:32.786Z,29.32
2017-05-22T11:03:42.833Z,29.11
2017-05-22T11:04:52.624Z,29.23
2017-05-22T11:06:02.993Z,29.28
2017-05-22T11:07:13.040Z,29.35
2017-05-22T11:08:23.405Z,29.47
2017-05-22T11:09:33.439Z,29.51
2017-05-22T11:10:43.789Z,29.5
2017-05-22T11:11:54.143Z,29.58
2017-05-22T11:13:04.488Z,29.67
2017-05-22T11:14:14.530Z,29.73
2017-05-22T11:15:24.572Z,29.82
2017-05-22T11:16:34.302Z,29.85
2017-05-22T11:17:44.355Z,29.88
2017-05-22T11:18:54.392Z,29.97
2017-05-22T11:20:04.762Z,29.75
2017-05-22T11:21:15.112Z,29.91
2017-05-22T11:22:25.484Z,29.95
2017-05-22T11:23:35.841Z,30.09
2017-05-22T11:24:45.878Z,30.18
2017-05-22T11:25:55.929Z,30.35
2017-05-22T11:27:06.000Z,30.49
2017-05-22T11:28:16.403Z,30.19
2017-05-22T11:29:26.763Z,29.95
2017-05-22T11:30:37.120Z,30.19
2017-05-22T11:31:47.167Z,30.16
2017-05-22T11:32:57.524Z,29.61
2017-05-22T11:34:07.891Z,29.84
2017-05-22T11:35:17.922Z,29.97
2017-05-22T11:36:28.285Z,29.4
2017-05-22T11:37:38.647Z,29.23
2017-05-22T11:38:48.702Z,29.55
2017-05-22T11:39:59.372Z,29.79
2017-05-22T11:41:09.104Z,30.02
2017-05-22T11:42:19.451Z,30.03
2017-05-22T11:43:29.845Z,30.14
2017-05-22T11:44:40.208Z,30.29
2017-05-22T11:45:50.617Z,30.48
2017-05-22T11:47:00.954Z,30.52
2017-05-22T11:48:11.307Z,30.78
2017-05-22T11:49:21.358Z,30.86
2017-05-22T11:50:31.730Z,31.07
2017-05-22T11:51:42.138Z,31.28
2017-05-22T11:52:52.500Z,31.31
2017-05-22T11:54:02.253Z,30.97
2017-05-22T11:55:12.620Z,30.44
2017-05-22T11:56:22.970Z,29.98
2017-05-22T11:57:33.022Z,29.58
2017-05-22T11:58:43.384Z,29.4
2017-05-22T11:59:53.747Z,29.43
2017-05-22T12:01:03.798Z,29.72
2017-05-22T12:02:14.158Z,30.02
2017-05-22T12:03:23.948Z,30.09
2017-05-22T12:04:34.316Z,30.25
2017-05-22T12:05:44.362Z,30.28
2017-05-22T12:06:54.739Z,30.49
2017-05-22T12:08:05.097Z,30.51
2017-05-22T12:09:15.444Z,30.57
2017-05-22T12:10:25.514Z,30.78
2017-05-22T12:11:35.902Z,30.85
2017-05-22T12:12:46.295Z,30.89
2017-05-22T12:13:56.641Z,31.04
2017-05-22T12:15:07.005Z,31.16
2017-05-22T12:16:17.368Z,31.31
2017-05-22T12:17:27.408Z,31.36
2017-05-22T12:18:37.458Z,30.71
2017-05-22T12:19:47.823Z,30.71
2017-05-22T12:20:58.253Z,30.81
2017-05-22T12:22:07.990Z,30.67
2017-05-22T12:23:18.371Z,30.7
2017-05-22T12:24:28.737Z,30.7
2017-05-22T12:25:39.099Z,30.67
2017-05-22T12:26:49.503Z,30.73
2017-05-22T12:27:59.876Z,30.77
2017-05-22T12:29:10.228Z,30.86
2017-05-22T12:30:20.268Z,30.93
2017-05-22T12:31:30.633Z,31.03
2017-05-22T12:32:40.685Z,31.06
2017-05-22T12:33:51.051Z,31.16
2017-05-22T12:35:01.398Z,31.22
2017-05-22T12:36:11.741Z,31.3
2017-05-22T12:37:22.091Z,31.3
2017-05-22T12:38:32.438Z,31.31
2017-05-22T12:39:42.789Z,31.33
2017-05-22T12:40:52.840Z,31.33
2017-05-22T12:42:03.184Z,31.52
2017-05-22T12:43:13.557Z,31.41
2017-05-22T12:44:23.969Z,31.43
2017-05-22T12:45:34.014Z,31.08
2017-05-22T12:46:44.058Z,30.52
2017-05-22T12:47:54.396Z,30.31
2017-05-22T12:49:04.438Z,30.56
2017-05-22T12:50:14.536Z,30.67
2017-05-22T12:51:24.899Z,30.71
2017-05-22T12:52:35.250Z,30.73
2017-05-22T12:53:45.296Z,30.85
2017-05-22T12:54:55.657Z,30.86
2017-05-22T12:56:06.063Z,31.07
2017-05-22T12:57:16.129Z,31.22
2017-05-22T12:58:26.180Z,31.19
2017-05-22T12:59:36.537Z,31.36
2017-05-22T13:00:46.878Z,31.56
2017-05-22T13:01:56.957Z,31.7
2017-05-22T13:03:07.002Z,31.52
2017-05-22T13:04:17.351Z,31.45
2017-05-22T13:05:27.713Z,31.41
2017-05-22T13:06:38.082Z,31.33
2017-05-22T13:07:48.494Z,31.45
2017-05-22T13:08:58.549Z,31.52
2017-05-22T13:10:08.885Z,31.5
2017-05-22T13:11:19.231Z,31.63
2017-05-22T13:12:29.593Z,31.62
2017-05-22T13:13:39.696Z,31.62
2017-05-22T13:14:49.419Z,31.68
2017-05-22T13:15:59.785Z,31.53
2017-05-22T13:17:10.148Z,31.53
2017-05-22T13:18:20.512Z,31.21
2017-05-22T13:19:30.871Z,30.77
2017-05-22T13:20:41.261Z,30.75
2017-05-22T13:21:51.623Z,30.73
2017-05-22T13:23:01.663Z,30.81
2017-05-22T13:24:12.018Z,31
2017-05-22T13:25:22.398Z,30.94
2017-05-22T13:26:32.448Z,30.91
2017-05-22T13:27:42.818Z,30.81
2017-05-22T13:28:53.167Z,30.81
2017-05-22T13:30:03.535Z,30.73
2017-05-22T13:31:13.904Z,30.79
2017-05-22T13:32:24.260Z,30.88
2017-05-22T13:33:34.606Z,30.89
2017-05-22T13:34:44.402Z,30.97
2017-05-22T13:35:54.453Z,31.06
2017-05-22T13:37:04.531Z,31.16
2017-05-22T13:38:14.589Z,31.06
2017-05-22T13:39:24.951Z,30.77
2017-05-22T13:40:35.066Z,30.7
2017-05-22T13:41:45.118Z,30.57
2017-05-22T13:42:55.467Z,30.31
2017-05-22T13:44:05.821Z,30.29
2017-05-22T13:45:16.180Z,30.62
2017-05-22T13:46:26.537Z,30.71
2017-05-22T13:47:36.885Z,30.79
2017-05-22T13:48:46.944Z,30.86
2017-05-22T13:49:57.302Z,30.77
2017-05-22T13:51:07.660Z,30.54
2017-05-22T13:52:17.388Z,30.56
2017-05-22T13:53:27.762Z,30.64
2017-05-22T13:54:38.125Z,30.56
2017-05-22T13:55:48.502Z,30.51
2017-05-22T13:56:58.548Z,30.52
2017-05-22T13:58:08.939Z,30.64
2017-05-22T13:59:18.982Z,30.56
2017-05-22T14:00:29.357Z,30.57
2017-05-22T14:01:39.403Z,30.57
2017-05-22T14:02:49.781Z,30.6
2017-05-22T14:03:59.860Z,30.59
2017-05-22T14:05:10.214Z,30.59
2017-05-22T14:06:20.553Z,30.54
2017-05-22T14:07:30.922Z,30.51
2017-05-22T14:08:40.986Z,30.52
2017-05-22T14:09:51.030Z,30.56
2017-05-22T14:11:01.064Z,30.71
2017-05-22T14:12:11.427Z,30.71
2017-05-22T14:13:21.798Z,30.81
2017-05-22T14:14:31.847Z,30.84
2017-05-22T14:15:42.209Z,30.94
2017-05-22T14:16:52.573Z,30.94
2017-05-22T14:18:02.929Z,31.01
2017-05-22T14:19:13.305Z,31.03
2017-05-22T14:20:23.655Z,31.15
2017-05-22T14:21:33.421Z,31.22
2017-05-22T14:22:43.472Z,31.31
2017-05-22T14:23:52.885Z,31.26
2017-05-22T14:25:03.237Z,31.28
2017-05-22T14:26:13.271Z,31.36
2017-05-22T14:27:23.635Z,31.43
2017-05-22T14:28:33.990Z,31.44
2017-05-22T14:29:44.032Z,31.49
2017-05-22T14:30:53.770Z,31.43
2017-05-22T14:32:04.125Z,31.58
2017-05-22T14:33:14.486Z,31.62
2017-05-22T14:34:24.845Z,31.78
2017-05-22T14:35:35.194Z,31.93
2017-05-22T14:36:45.874Z,31.88
2017-05-22T14:37:56.238Z,31.87
2017-05-22T14:39:06.676Z,31.87
2017-05-22T14:40:17.051Z,31.95
2017-05-22T14:41:27.147Z,32.06
2017-05-22T14:42:37.544Z,32.16
2017-05-22T14:43:47.971Z,32.19
2017-05-22T14:44:58.078Z,32.28
2017-05-22T14:46:08.521Z,32.27
2017-05-22T14:47:18.906Z,32.32
2017-05-22T14:48:29.315Z,32.42
2017-05-22T14:49:39.696Z,32.37
2017-05-22T14:50:50.148Z,32.31
2017-05-22T14:52:00.216Z,32.24
2017-05-22T14:53:10.617Z,32.24
2017-05-22T14:54:20.377Z,32.1
2017-05-22T14:55:30.780Z,32.01
2017-05-22T14:56:41.088Z,31.87
2017-05-22T14:57:51.160Z,31.6
2017-05-22T14:59:01.552Z,31.41
2017-05-22T15:00:11.731Z,31.26
2017-05-22T15:01:22.091Z,31.31
2017-05-22T15:02:32.189Z,31.3
2017-05-22T15:03:42.244Z,31.21
2017-05-22T15:04:52.646Z,31.23
2017-05-22T15:06:02.995Z,31.07
2017-05-22T15:07:13.374Z,31.01
2017-05-22T15:08:23.799Z,30.93
2017-05-22T15:09:34.175Z,30.93
2017-05-22T15:10:44.536Z,30.97
2017-05-22T15:11:54.919Z,30.93
2017-05-22T15:13:05.310Z,30.96
2017-05-22T15:14:15.655Z,30.91
2017-05-22T15:15:26.039Z,30.84
2017-05-22T15:16:36.413Z,30.82
2017-05-22T15:17:46.804Z,30.89
2017-05-22T15:18:57.174Z,30.86
2017-05-22T15:20:07.605Z,30.84
2017-05-22T15:21:17.968Z,30.89
2017-05-22T15:22:28.330Z,30.93
2017-05-22T15:23:38.064Z,30.96
2017-05-22T15:24:48.427Z,30.97
2017-05-22T15:25:58.862Z,31.06
2017-05-22T15:27:09.270Z,31.1
2017-05-22T15:28:19.655Z,31.06
2017-05-22T15:29:30.026Z,31.19
2017-05-22T15:30:40.099Z,31.15
2017-05-22T15:31:50.456Z,31.22
2017-05-22T15:33:00.877Z,31.28
2017-05-22T15:34:11.244Z,31.28
2017-05-22T15:35:21.294Z,31.31
2017-05-22T15:36:31.346Z,31.37
2017-05-22T15:37:41.788Z,31.34